Cedar City, Utah Weather observations

Data are for observation ending at time listed.
 Day   Time    Ave.   Ave.  Ave.  Vector   Max.   Stn.    Total    Solar   Ave.  
  of    of     Air    Rel.  Wind   Wind    Wind   Baro.  Precip.   Rad.    Soil  
Year   Day     Temp.  Hum.  Speed  Dir.    Gust   Pres.                    Temp. 
2016   (MST)    F      %     mph   deg.    mph     mb.     in.     W/m2     F   
------------------------------------------------------------------------------
 206    5:20   69.3    28    6.9    98     11.8   825.0    0.00       0    79.2
 206    5:30   69.5    28    4.8   120      8.6   825.1    0.00       3    79.2
 206    5:40   69.8    28    6.1   110     10.7   825.2    0.00       5    79.1
 206    5:50   69.8    28    6.2   106     12.7   825.3    0.00      11    79.0
 206    6:00   69.8    28    5.6   104      9.2   825.4    0.00      17    78.9
 206    6:10   69.9    28    5.0   113      8.8   825.5    0.00      20    78.9
 206    6:20   69.9    28    4.8   101      8.0   825.5    0.00      66    78.8
 206    6:30   70.7    28    5.2   104      9.1   825.6    0.00     115    78.7
 206    6:40   71.2    28    5.8    98      9.1   825.6    0.00     143    78.7
 206    6:50   71.9    28    5.0    94      8.0   825.8    0.00     175    78.6
 206    7:00   72.6    27    4.4    97      6.4   825.9    0.00     206    78.5
 206    7:10   73.4    27    3.7    97      7.1   826.0    0.00     239    78.5
 206    7:20   74.4    26    3.8   100      6.0   826.1    0.00     270    78.5
 206    7:30   75.5    26    3.5   102      6.0   826.2    0.00     303    78.4
 206    7:40   76.5    26    3.2    99      5.5   826.2    0.00     336    78.4
 206    7:50   77.4    25    3.3    95      5.8   826.2    0.00     370    78.5
 206    8:00   78.5    25    2.7    73      5.6   826.3    0.00     406    78.5
 206    8:10   79.6    24    2.2    74      4.5   826.3    0.00     440    78.5
 206    8:20   80.7    24    2.0    42      4.2   826.3    0.00     477    78.6
 206    8:30   78.7    27    2.6   325      4.0   826.3    0.00     500    78.6
 206    8:40   78.1    27    1.7   319      3.1   826.3    0.00     530    78.7
 206    8:50   80.2    26    0.4   321      1.9   826.3    0.00     564    78.7
 206    9:00   81.4    25    0.0     0      0.0   826.3    0.00     594    78.7
 206    9:10   82.3    25    0.7   352      4.2   826.3    0.00     629    78.7
 206    9:20   81.6    23    1.9   344      5.8   826.3    0.00     657    78.8
 206    9:30   81.4    24    2.2   336      5.5   826.3    0.00     682    78.8
 206    9:40   81.4    24    2.4   354      5.6   826.3    0.00     712    78.8
 206    9:50   82.1    23    1.8     8      4.5   826.3    0.00     738    78.8
 206   10:00   83.5    23    1.2    11      3.8   826.3    0.00     677    78.9
 206   10:10   83.9    22    1.4   319      4.1   826.3    0.00     787    78.9
 206   10:20   84.4    21    1.9   288      5.0   826.3    0.00     808    78.9
 206   10:30   85.0    21    1.6   322      4.7   826.3    0.00     832    78.9
 206   10:40   86.6    20    0.9    18      3.8   826.2    0.00     812    78.9
 206   10:50   86.2    20    1.4    13      4.5   826.1    0.00     757    78.9
 206   11:00   86.2    20    1.2     0      5.1   826.1    0.00     872    78.9
 206   11:10   88.0    19    0.6   304      2.9   826.0    0.00     900    79.0
 206   11:20   88.4    19    1.1    13      4.7   825.9    0.00     910    79.0
 206   11:30   89.1    17    1.0   311      6.4   825.8    0.00     922    79.0
 206   11:40   90.1    17    0.3   332      3.9   825.7    0.00     932    79.1
 206   11:50   89.5    17    1.1   358      7.5   825.7    0.00     946    79.1
 206   12:00   89.0    17    1.9    70      6.7   825.6    0.00     953    79.1
 206   12:10   91.2    15    3.0   206     13.4   825.5    0.00     951    79.2
 206   12:20   91.8    15    3.1   234      8.7   825.5    0.00     962    79.2
 206   12:30   92.0    16    2.9   229      8.9   825.3    0.00     985    79.3
 206   12:40   91.7    16    5.1   259     18.8   825.3    0.00     776    79.3
 206   12:50   92.0    16    3.7   235      9.3   825.2    0.00    1005    79.4
 206   13:00   92.1    16    6.5   259     13.0   825.1    0.00     988    79.6
 206   13:10   90.6    16    4.2   248     12.2   825.3    0.00     299    79.6
 206   13:20   89.2    17    6.3   237     17.8   825.3    0.00     177    79.6
 206   13:30   88.4    14    5.3   237     11.2   825.2    0.00     207    79.7
 206   13:40   88.6    14    4.5   242     10.9   825.0    0.00     291    79.8
 206   13:50   89.2    15    2.8   305      6.2   825.0    0.00     612    80.0
 206   14:00   89.9    16    3.2   325      8.9   825.0    0.00     836    80.1
 206   14:10   88.8    17    3.2   318      8.8   824.9    0.00     778    80.3
 206   14:20   88.2    13    3.8    31     15.1   824.7    0.00     339    80.3
 206   14:30   87.7    13    2.7   359      7.5   824.7    0.00     499    80.3
 206   14:40   88.1    12    5.1    45     10.7   824.7    0.00     295    80.4
 206   14:50   88.5    12    5.3    90     11.5   824.8    0.00     163    80.5
 206   15:00   87.2    14    8.9   100     15.8   825.0    0.00     117    80.7
 206   15:10   84.6    20   10.5    76     20.7   824.8    0.00     121    80.7
 206   15:20   83.6    21    6.8    72     12.6   824.7    0.02      85    80.7
 206   15:30   79.4    38    2.7    82      9.3   825.0    0.00      68    80.8
 206   15:40   76.6    40    4.1   114      7.8   825.3    0.05      75    80.9
 206   15:50   69.5    56    8.5    97     13.0   825.1    0.05      99    81.0
 206   16:00   71.0    52    4.9   120     15.0   824.5    0.01     109    81.1
 206   16:10   71.4    57    7.6    96     14.5   824.5    0.03     540    81.1
 206   16:20   71.9    59    6.2    99     13.8   824.4    0.00     657    81.0
 206   16:30   75.9    48    4.4    78      9.7   824.3    0.00     612    81.0
 206   16:40   77.0    43   10.3    89     19.0   824.2    0.00     671    81.0
 206   16:50   76.0    44    9.4    94     15.8   824.3    0.00     633    80.9
 206   17:00   80.0    34    6.9    98     13.2   824.3    0.00     564    80.8
 206   17:10   81.7    31    7.7    74     12.9   824.2    0.00     515    80.8
 206   17:20   82.6    28   10.8    80     17.1   824.2    0.00     470    80.6
 206   17:30   83.2    28    9.2    81     16.1   824.2    0.00     448    80.5
 206   17:40   83.1    29    9.3    84     15.8   824.1    0.00     248    80.4
 206   17:50   82.1    29    8.3    79     16.5   824.1    0.00      99    80.3
 206   18:00   82.3    29    7.8    76     12.9   823.9    0.00     256    80.3
 206   18:10   83.6    28    9.0    72     15.1   823.9    0.00     318    80.3
 206   18:20   84.4    27    7.1    82     12.1   824.0    0.00     333    80.3
 206   18:30   85.0    27    6.6    75     12.4   824.0    0.00     292    80.3
 206   18:40   85.6    26    5.6    90     10.7   824.1    0.00     221    80.3
 206   18:50   85.2    26    6.8    83     13.4   824.2    0.00     172    80.3
 206   19:00   83.8    28    7.2    94     13.6   824.2    0.00     142    80.3
 206   19:10   83.7    29    4.3   108     10.2   824.3    0.00     110    80.3
 206   19:20   85.6    23    1.4   164      5.6   824.4    0.00      61    80.3
 206   19:30   83.9    29    1.4    56      3.6   824.5    0.00      33    80.3
 206   19:40   81.9    30    1.9    47      3.6   824.6    0.00      15    80.3
 206   19:50   82.2    27    3.0    87      6.6   824.7    0.00       7    80.3
 206   20:00   81.4    28    4.7    96     10.9   824.7    0.00       2    80.3
 206   20:10   79.8    29    4.9    84      7.2   824.8    0.00       0    80.3
 206   20:20   79.0    30    2.5    64      5.4   824.9    0.00       0    80.3
 206   20:30   78.2    31    0.8    66      2.0   824.9    0.00       0    80.3
 206   20:40   78.2    30    2.2    77      4.9   825.0    0.00       0    80.3
 206   20:50   77.9    31    4.5    81      7.8   825.2    0.00       0    80.3
 206   21:00   76.5    33    5.1    82      8.6   825.2    0.00       0    80.2
 206   21:10   76.7    32    4.8    88      8.3   825.3    0.00       0    80.2
 206   21:20   76.7    32    4.1    92      8.0   825.4    0.00       0    80.1
 206   21:30   76.6    31    5.9    90     10.0   825.4    0.00       0    80.1
 206   21:40   76.3    31    5.5    92     11.8   825.5    0.00       0    80.0
 206   21:50   75.8    32    6.0    87     10.0   825.5    0.00       0    80.0
 206   22:00   75.4    32    5.1    77     10.1   825.5    0.00       0    80.0
 206   22:10   75.8    30    3.1    78      5.8   825.5    0.00       0    79.9
 206   22:20   76.2    29    2.5    81      5.3   825.5    0.00       0    79.8
 206   22:30   76.3    28    3.0    77      5.3   825.5    0.00       0    79.8
 206   22:40   76.7    28    4.0    81      5.7   825.5    0.00       0    79.7
 206   22:50   77.3    26    4.8    90      7.2   825.5    0.00       0    79.7
 206   23:00   77.7    26    4.0   103      6.4   825.5    0.00       0    79.6
 206   23:10   78.5    24    3.9    92      8.0   825.5    0.00       0    79.6
 206   23:20   78.8    25    3.4   108      8.2   825.5    0.00       0    79.5
 206   23:30   78.2    26    2.2    87      5.6   825.5    0.00       0    79.4
 206   23:40   78.2    26    2.7   118      6.3   825.5    0.00       0    79.4
 206   23:50   78.0    26    4.1   103      9.9   825.5    0.00       0    79.3
 207    0:00   77.7    27    5.5   103      8.7   825.5    0.00       0    79.3
 207    0:10   76.9    28    4.8   104     11.2   825.6    0.00       0    79.2
 207    0:20   76.7    28    6.1    95     11.4   825.5    0.00       0    79.1
 207    0:30   76.6    28    5.3   105     11.1   825.6    0.00       0    79.1
 207    0:40   77.1    27    3.9   109      8.6   825.7    0.00       0    79.1
 207    0:50   76.9    27    3.0   116      8.0   825.7    0.00       0    79.0
 207    1:00   77.1    27    3.2   108      5.6   825.7    0.00       0    79.0
 207    1:10   77.1    27    3.5   117      6.7   825.8    0.00       0    78.9
 207    1:20   76.3    28    2.5   144      7.5   825.8    0.00       0    78.9
 207    1:30   76.5    28    3.9    97     12.0   825.8    0.00       0    78.8
 207    1:40   75.6    29    5.1   107      9.3   825.9    0.00       0    78.8
 207    1:50   75.2    30    3.7   105      9.1   825.9    0.00       0    78.7
 207    2:00   74.7    31    2.9   150      6.9   826.0    0.00       0    78.7
 207    2:10   74.0    32    3.1    94      7.5   826.0    0.00       0    78.6
 207    2:20   74.7    30    3.2   113      5.9   826.0    0.00       0    78.6
 207    2:30   72.7    36    2.4   266      6.4   826.0    0.00       0    78.5
 207    2:40   70.6    39    1.3   223      4.2   826.1    0.00       0    78.5
 207    2:50   70.5    40    0.1   214      1.1   826.0    0.00       0    78.4
 207    3:00   69.4    42    1.0   122      2.3   826.1    0.00       0    78.4
 207    3:10   70.8    37    3.2    84      5.6   826.1    0.00       0    78.4
 207    3:20   71.5    35    4.8    95      8.4   826.1    0.00       0    78.3
 207    3:30   71.0    36    5.6    94      8.3   826.1    0.00       0    78.3
 207    3:40   71.0    36    5.3    92      8.8   826.1    0.00       0    78.2
 207    3:50   71.1    35    5.5   104      8.6   826.1    0.00       0    78.2
 207    4:00   70.8    36    5.5   103      9.8   826.0    0.00       0    78.2
 207    4:10   70.3    37    6.5   100      9.8   826.0    0.00       0    78.1
 207    4:20   69.9    38    6.2   109     10.7   826.0    0.00       0    78.0
 207    4:30   69.8    39    5.9    99     11.0   826.0    0.00       0    78.0
 207    4:40   70.0    38    5.4    97      9.0   826.1    0.00       0    77.9
 207    4:50   70.4    38    5.7   100      9.4   826.2    0.00       0    77.8
 207    5:00   70.4    38    5.7    96      9.7   826.2    0.00       0    77.8
 207    5:10   70.0    38    6.1    93      9.8   826.3    0.00       0    77.7

Return to Cedar City, Utah graphs page.


Western Regional Climate Center,wrcc@dri.edu